createdAt,value
2019-05-06T00:02:30.028Z,90.60
2019-05-06T00:05:35.115Z,90.50
2019-05-06T00:08:40.111Z,90.50
2019-05-06T00:11:45.186Z,90.40
2019-05-06T00:14:50.102Z,90.40
2019-05-06T00:17:55.164Z,90.30
2019-05-06T00:21:00.226Z,90.30
2019-05-06T00:24:05.369Z,90.30
2019-05-06T00:27:25.595Z,90.20
2019-05-06T00:30:30.664Z,90.20
2019-05-06T00:33:35.762Z,90.10
2019-05-06T00:36:40.831Z,90.20
2019-05-06T00:40:00.500Z,90.30
2019-05-06T00:43:07.531Z,90.40
2019-05-06T00:46:13.854Z,90.60
2019-05-06T00:49:19.051Z,90.80
2019-05-06T00:52:26.002Z,90.80
2019-05-06T00:55:31.162Z,90.90
2019-05-06T00:58:36.149Z,91.00
2019-05-06T01:01:41.059Z,91.20
2019-05-06T01:04:45.969Z,91.50
2019-05-06T01:07:54.879Z,91.80
2019-05-06T01:11:00.381Z,91.80
2019-05-06T01:14:09.947Z,91.80
2019-05-06T01:17:14.942Z,91.90
2019-05-06T01:20:19.982Z,92.10
2019-05-06T01:23:24.902Z,92.10
2019-05-06T01:26:29.829Z,92.40
2019-05-06T01:29:34.947Z,92.40
2019-05-06T01:32:40.059Z,92.50
2019-05-06T01:35:44.988Z,92.50
2019-05-06T01:39:13.885Z,92.50
2019-05-06T01:42:40.887Z,92.60
2019-05-06T01:45:45.889Z,92.90
2019-05-06T01:48:50.882Z,93.30
2019-05-06T01:51:55.938Z,93.70
2019-05-06T01:55:00.847Z,93.70
2019-05-06T01:58:05.762Z,93.80
2019-05-06T02:01:10.754Z,93.90
2019-05-06T02:04:15.825Z,93.90
2019-05-06T02:07:20.746Z,93.80
2019-05-06T02:10:25.721Z,93.70
2019-05-06T02:13:30.781Z,93.60
2019-05-06T02:16:35.766Z,93.50
2019-05-06T02:19:40.757Z,93.30
2019-05-06T02:22:53.765Z,93.10
2019-05-06T02:25:58.522Z,93.60
2019-05-06T02:29:05.237Z,93.30
2019-05-06T02:32:27.134Z,93.30
2019-05-06T02:35:34.972Z,93.10
2019-05-06T02:38:48.039Z,93.00
2019-05-06T02:41:46.696Z,92.90
2019-05-06T02:44:54.147Z,92.80
2019-05-06T02:48:15.600Z,92.90
2019-05-06T02:51:24.457Z,92.90
2019-05-06T02:54:29.574Z,92.90
2019-05-06T02:57:34.622Z,93.20
2019-05-06T03:00:42.425Z,92.70
2019-05-06T03:03:46.291Z,92.60
2019-05-06T03:06:53.321Z,92.60
2019-05-06T03:09:57.815Z,92.80
2019-05-06T03:13:03.119Z,92.80
2019-05-06T03:16:08.078Z,92.80
2019-05-06T03:19:13.578Z,92.80
2019-05-06T03:22:49.709Z,92.90
2019-05-06T03:25:54.779Z,92.80
2019-05-06T03:29:02.268Z,92.80
2019-05-06T03:32:07.682Z,93.00
2019-05-06T03:35:27.399Z,93.10
2019-05-06T03:38:22.695Z,93.30
2019-05-06T03:41:26.882Z,93.40
2019-05-06T03:44:33.233Z,93.50
2019-05-06T03:47:55.566Z,93.40
2019-05-06T03:51:03.834Z,93.40
2019-05-06T03:54:07.298Z,93.40
2019-05-06T03:57:13.870Z,93.50
2019-05-06T04:00:19.032Z,93.40
2019-05-06T04:03:41.955Z,93.20
2019-05-06T04:06:33.320Z,93.00
2019-05-06T04:09:38.488Z,93.00
2019-05-06T04:12:45.003Z,92.80
2019-05-06T04:15:57.031Z,92.90
2019-05-06T04:19:12.820Z,92.90
2019-05-06T04:22:23.685Z,93.10
2019-05-06T04:25:47.032Z,93.20
2019-05-06T04:28:53.520Z,93.20
2019-05-06T04:31:58.592Z,93.10
2019-05-06T04:35:04.733Z,92.90
2019-05-06T04:38:09.937Z,92.60
2019-05-06T04:41:14.988Z,92.70
2019-05-06T04:44:23.514Z,92.70
2019-05-06T04:47:26.964Z,92.70
2019-05-06T04:50:33.255Z,92.60
2019-05-06T04:53:38.470Z,92.60
2019-05-06T04:56:44.017Z,92.50
2019-05-06T04:59:49.194Z,92.30
2019-05-06T05:02:55.006Z,92.20
2019-05-06T05:06:03.038Z,92.20
2019-05-06T05:09:07.317Z,92.10
2019-05-06T05:12:19.705Z,92.00
2019-05-06T05:15:52.685Z,91.90
2019-05-06T05:19:04.220Z,91.80
2019-05-06T05:22:09.986Z,91.90
2019-05-06T05:25:15.546Z,91.80
2019-05-06T05:28:22.277Z,91.80
2019-05-06T05:31:27.769Z,91.80
2019-05-06T05:34:40.305Z,91.90
2019-05-06T05:37:41.475Z,92.20
2019-05-06T05:40:46.753Z,92.20
2019-05-06T05:43:56.574Z,92.10
2019-05-06T05:47:03.414Z,92.30
2019-05-06T05:50:14.705Z,92.40
2019-05-06T05:53:19.826Z,92.60
2019-05-06T05:56:24.818Z,92.00
2019-05-06T05:59:32.898Z,91.60
2019-05-06T06:02:38.123Z,91.00
2019-05-06T06:05:43.470Z,90.80
2019-05-06T06:08:48.612Z,90.40
2019-05-06T06:11:55.546Z,90.00
2019-05-06T06:15:18.010Z,89.60
2019-05-06T06:18:43.261Z,88.20
2019-05-06T06:21:53.736Z,86.70
2019-05-06T06:24:58.807Z,86.70
2019-05-06T06:28:03.967Z,85.00
2019-05-06T06:31:33.107Z,84.20
2019-05-06T06:35:10.123Z,83.90
2019-05-06T06:38:15.779Z,84.40
2019-05-06T06:41:22.789Z,82.50
2019-05-06T06:44:32.946Z,82.70
2019-05-06T06:47:37.461Z,82.50
2019-05-06T06:50:42.794Z,83.10
2019-05-06T06:53:47.900Z,82.20
2019-05-06T06:57:09.511Z,82.30
2019-05-06T07:00:33.680Z,82.60
2019-05-06T07:03:46.484Z,82.30
2019-05-06T07:06:54.369Z,81.60
2019-05-06T07:09:59.290Z,81.50
2019-05-06T07:13:04.445Z,81.50
2019-05-06T07:16:09.417Z,81.40
2019-05-06T07:19:17.040Z,81.60
2019-05-06T07:22:23.598Z,81.60
2019-05-06T07:25:28.593Z,81.50
2019-05-06T07:28:33.658Z,81.30
2019-05-06T07:31:38.740Z,82.10
2019-05-06T07:34:43.712Z,82.60
2019-05-06T07:37:48.697Z,82.80
2019-05-06T07:41:04.192Z,83.00
2019-05-06T07:44:25.170Z,82.90
2019-05-06T07:47:49.250Z,83.90
2019-05-06T07:50:54.343Z,83.00
2019-05-06T07:53:59.379Z,82.20
2019-05-06T07:57:04.441Z,82.50
2019-05-06T08:00:09.438Z,81.50
2019-05-06T08:03:14.326Z,81.60
2019-05-06T08:06:19.332Z,79.20
2019-05-06T08:09:24.317Z,78.80
2019-05-06T08:12:29.319Z,78.30
2019-05-06T08:15:34.470Z,78.10
2019-05-06T08:18:39.403Z,78.10
2019-05-06T08:21:46.044Z,78.60
2019-05-06T08:24:53.207Z,78.80
2019-05-06T08:27:57.722Z,80.10
2019-05-06T08:31:02.642Z,80.50
2019-05-06T08:34:07.717Z,81.40
2019-05-06T08:37:24.541Z,82.10
2019-05-06T08:40:29.548Z,82.20
2019-05-06T08:43:34.549Z,84.10
2019-05-06T08:46:39.706Z,85.10
2019-05-06T08:50:15.891Z,84.90
2019-05-06T08:53:39.962Z,84.30
2019-05-06T08:56:45.031Z,80.90
2019-05-06T08:59:49.950Z,80.70
2019-05-06T09:02:55.027Z,79.20
2019-05-06T09:06:00.011Z,78.60
2019-05-06T09:09:07.010Z,78.10
2019-05-06T09:12:13.037Z,77.40
2019-05-06T09:15:18.191Z,76.60
2019-05-06T09:18:24.078Z,75.40
2019-05-06T09:21:29.395Z,75.30
2019-05-06T09:24:34.322Z,74.40
2019-05-06T09:27:57.011Z,74.50
2019-05-06T09:31:12.504Z,74.00
2019-05-06T09:34:28.725Z,72.70
2019-05-06T09:37:33.706Z,72.50
2019-05-06T09:40:38.774Z,71.40
2019-05-06T09:43:43.762Z,70.60
2019-05-06T09:46:48.774Z,70.80
2019-05-06T09:49:53.827Z,71.20
2019-05-06T09:52:58.763Z,70.20
2019-05-06T09:56:22.897Z,67.90
2019-05-06T09:59:27.427Z,67.20
2019-05-06T10:02:32.727Z,66.50
2019-05-06T10:05:37.786Z,62.10
2019-05-06T10:08:42.789Z,63.60
2019-05-06T10:11:47.773Z,64.60
2019-05-06T10:14:53.385Z,64.20
2019-05-06T10:18:07.615Z,66.10
2019-05-06T10:21:12.625Z,67.00
2019-05-06T10:24:17.754Z,66.90
2019-05-06T10:27:22.835Z,66.70
2019-05-06T10:30:27.817Z,66.90
2019-05-06T10:33:33.766Z,65.60
2019-05-06T10:36:54.473Z,64.00
2019-05-06T10:40:07.263Z,65.60
2019-05-06T10:43:34.122Z,65.40
2019-05-06T10:46:39.109Z,61.50
2019-05-06T10:49:44.113Z,61.80
2019-05-06T10:53:13.373Z,61.20
2019-05-06T10:56:49.757Z,60.00
2019-05-06T10:59:42.936Z,60.70
2019-05-06T11:02:57.791Z,59.30
2019-05-06T11:06:02.878Z,59.10
2019-05-06T11:09:09.453Z,59.30
2019-05-06T11:12:14.526Z,59.30
2019-05-06T11:15:19.586Z,59.40
2019-05-06T11:18:24.517Z,58.20
2019-05-06T11:21:29.502Z,58.00
2019-05-06T11:24:34.519Z,57.60
2019-05-06T11:27:41.821Z,57.30
2019-05-06T11:31:04.382Z,56.30
2019-05-06T11:34:28.499Z,56.50
2019-05-06T11:37:58.786Z,57.20
2019-05-06T11:41:03.863Z,57.10
2019-05-06T11:44:09.290Z,57.60
2019-05-06T11:47:14.474Z,58.50
2019-05-06T11:50:19.541Z,60.60
2019-05-06T11:53:24.467Z,67.40
2019-05-06T11:56:29.528Z,70.80
2019-05-06T11:59:34.543Z,72.30
2019-05-06T12:02:42.118Z,72.90
2019-05-06T12:05:46.214Z,71.20
2019-05-06T12:08:52.453Z,70.30
2019-05-06T12:11:57.993Z,69.80
2019-05-06T12:15:04.293Z,70.00
2019-05-06T12:18:09.618Z,69.80
2019-05-06T12:21:19.165Z,67.40
2019-05-06T12:24:22.882Z,67.10
2019-05-06T12:27:46.239Z,63.80
2019-05-06T12:30:52.416Z,61.30
2019-05-06T12:33:57.607Z,59.30
2019-05-06T12:37:04.602Z,56.80
2019-05-06T12:40:09.650Z,55.00
2019-05-06T12:43:33.055Z,54.70
2019-05-06T12:46:47.929Z,56.50
2019-05-06T12:49:53.517Z,57.10
2019-05-06T12:52:58.822Z,57.30
2019-05-06T12:56:03.909Z,57.20
2019-05-06T12:59:08.895Z,57.50
2019-05-06T13:02:14.055Z,58.50
2019-05-06T13:05:19.133Z,58.70
2019-05-06T13:08:29.057Z,59.70
2019-05-06T13:11:30.849Z,60.30
2019-05-06T13:14:35.788Z,59.80
2019-05-06T13:17:42.505Z,57.80
2019-05-06T13:20:51.146Z,57.30
2019-05-06T13:23:59.518Z,57.50
2019-05-06T13:27:06.315Z,58.10
2019-05-06T13:30:12.892Z,58.30
2019-05-06T13:33:29.313Z,57.20
2019-05-06T13:36:34.441Z,57.40
2019-05-06T13:39:39.392Z,57.70
2019-05-06T13:43:03.474Z,57.00
2019-05-06T13:46:34.746Z,57.60
2019-05-06T13:49:49.237Z,58.70
2019-05-06T13:53:08.310Z,57.10
2019-05-06T13:56:04.608Z,56.20
2019-05-06T13:59:09.296Z,56.20
2019-05-06T14:02:39.173Z,56.40
2019-05-06T14:05:44.253Z,55.90
2019-05-06T14:08:49.257Z,53.80
2019-05-06T14:11:54.202Z,52.60
2019-05-06T14:14:59.202Z,52.80
2019-05-06T14:18:04.365Z,53.50
2019-05-06T14:21:09.383Z,54.90
2019-05-06T14:24:17.313Z,55.70
2019-05-06T14:27:22.150Z,56.20
2019-05-06T14:30:46.461Z,56.10
2019-05-06T14:33:52.245Z,54.90
2019-05-06T14:36:57.457Z,54.50
2019-05-06T14:40:04.212Z,55.90
2019-05-06T14:43:09.204Z,57.10
2019-05-06T14:46:14.223Z,57.20
2019-05-06T14:49:19.210Z,56.60
2019-05-06T14:52:24.141Z,53.60
2019-05-06T14:55:32.723Z,52.90
2019-05-06T14:58:37.889Z,53.10
2019-05-06T15:01:45.440Z,53.10
2019-05-06T15:04:49.633Z,53.60
2019-05-06T15:07:54.571Z,53.00
2019-05-06T15:10:59.530Z,53.40
2019-05-06T15:14:05.105Z,53.90
2019-05-06T15:17:10.085Z,54.60
2019-05-06T15:20:15.375Z,55.00
2019-05-06T15:23:22.397Z,55.80
2019-05-06T15:26:27.213Z,56.30
2019-05-06T15:29:32.328Z,56.30
2019-05-06T15:32:38.965Z,57.50
2019-05-06T15:36:04.311Z,57.80
2019-05-06T15:39:09.465Z,58.40
2019-05-06T15:42:14.618Z,58.50
2019-05-06T15:45:21.756Z,57.60
2019-05-06T15:48:26.564Z,57.00
2019-05-06T15:51:34.635Z,57.20
2019-05-06T15:54:39.630Z,57.60
2019-05-06T15:57:44.713Z,57.40
2019-05-06T16:00:49.738Z,55.80
2019-05-06T16:03:54.775Z,55.80
2019-05-06T16:06:59.719Z,56.40
2019-05-06T16:10:05.530Z,56.00
2019-05-06T16:13:12.762Z,54.60
2019-05-06T16:16:17.194Z,54.00
2019-05-06T16:19:23.027Z,55.40
2019-05-06T16:22:28.134Z,54.60
2019-05-06T16:25:33.073Z,54.30
2019-05-06T16:28:38.092Z,54.80
2019-05-06T16:31:43.061Z,54.60
2019-05-06T16:34:48.064Z,54.30
2019-05-06T16:37:53.156Z,54.30
2019-05-06T16:41:10.356Z,53.40
2019-05-06T16:44:04.979Z,54.30
2019-05-06T16:47:11.899Z,54.50
2019-05-06T16:50:18.486Z,54.60
2019-05-06T16:53:23.859Z,55.20
2019-05-06T16:56:34.466Z,55.50
2019-05-06T16:59:39.413Z,55.30
2019-05-06T17:03:14.565Z,54.60
2019-05-06T17:06:23.092Z,55.00
2019-05-06T17:09:28.276Z,54.80
2019-05-06T17:12:33.287Z,55.10
2019-05-06T17:15:38.301Z,54.50
2019-05-06T17:18:43.320Z,54.20
2019-05-06T17:21:48.612Z,54.20
2019-05-06T17:24:53.942Z,54.50
2019-05-06T17:28:14.286Z,55.00
2019-05-06T17:31:28.029Z,55.20
2019-05-06T17:34:35.907Z,55.30
2019-05-06T17:37:53.869Z,55.50
2019-05-06T17:40:58.993Z,56.10
2019-05-06T17:44:04.040Z,54.60
2019-05-06T17:47:26.375Z,53.60
2019-05-06T17:50:32.618Z,53.80
2019-05-06T17:53:39.092Z,53.60
2019-05-06T17:56:44.146Z,53.50
2019-05-06T17:59:49.428Z,54.20
2019-05-06T18:02:54.605Z,54.60
2019-05-06T18:05:59.690Z,54.60
2019-05-06T18:09:07.126Z,54.70
2019-05-06T18:12:12.315Z,55.10
2019-05-06T18:15:17.433Z,56.20
2019-05-06T18:18:28.434Z,56.30
2019-05-06T18:21:29.226Z,56.70
2019-05-06T18:24:34.298Z,57.10
2019-05-06T18:27:39.833Z,57.60
2019-05-06T18:30:45.054Z,58.00
2019-05-06T18:33:50.157Z,58.40
2019-05-06T18:36:55.470Z,58.70
2019-05-06T18:40:00.826Z,58.70
2019-05-06T18:43:05.916Z,59.10
2019-05-06T18:46:12.172Z,59.50
2019-05-06T18:49:17.381Z,59.60
2019-05-06T18:52:22.981Z,59.90
2019-05-06T18:55:28.077Z,60.90
2019-05-06T18:58:33.391Z,60.70
2019-05-06T19:01:38.533Z,60.70
2019-05-06T19:04:52.293Z,61.10
2019-05-06T19:07:57.670Z,61.50
2019-05-06T19:11:03.466Z,61.40
2019-05-06T19:14:08.506Z,61.70
2019-05-06T19:17:13.493Z,62.50
2019-05-06T19:20:18.649Z,63.30
2019-05-06T19:23:23.782Z,63.80
2019-05-06T19:26:28.853Z,64.10
2019-05-06T19:29:34.073Z,65.80
2019-05-06T19:32:39.711Z,66.00
2019-05-06T19:35:44.752Z,66.40
2019-05-06T19:38:49.884Z,66.70
2019-05-06T19:41:54.810Z,67.60
2019-05-06T19:45:02.323Z,67.80
2019-05-06T19:48:06.490Z,67.00
2019-05-06T19:51:11.433Z,67.20
2019-05-06T19:54:16.361Z,67.50
2019-05-06T19:57:21.635Z,67.70
2019-05-06T20:00:27.119Z,67.80
2019-05-06T20:03:32.858Z,67.90
2019-05-06T20:07:02.353Z,68.40
2019-05-06T20:10:26.452Z,68.60
2019-05-06T20:13:32.250Z,69.00
2019-05-06T20:16:37.349Z,69.70
2019-05-06T20:19:42.677Z,70.40
2019-05-06T20:22:47.755Z,70.70
2019-05-06T20:25:52.729Z,71.20
2019-05-06T20:28:57.653Z,71.50
2019-05-06T20:32:02.579Z,72.00
2019-05-06T20:35:08.269Z,72.30
2019-05-06T20:38:13.322Z,72.80
2019-05-06T20:41:18.329Z,73.50
2019-05-06T20:44:23.224Z,73.90
2019-05-06T20:47:28.141Z,74.50
2019-05-06T20:50:33.134Z,74.90
2019-05-06T20:53:38.048Z,75.10
2019-05-06T20:56:43.277Z,75.60
2019-05-06T20:59:48.321Z,75.80
2019-05-06T21:02:53.576Z,76.00
2019-05-06T21:05:58.757Z,76.10
2019-05-06T21:09:06.089Z,76.30
2019-05-06T21:12:11.062Z,76.50
2019-05-06T21:15:16.355Z,76.50
2019-05-06T21:18:22.939Z,76.80
2019-05-06T21:21:28.042Z,76.70
2019-05-06T21:24:35.742Z,76.80
2019-05-06T21:27:39.635Z,76.60
2019-05-06T21:30:44.549Z,77.50
2019-05-06T21:33:49.619Z,76.60
2019-05-06T21:36:54.604Z,76.50
2019-05-06T21:39:59.610Z,76.40
2019-05-06T21:43:04.535Z,76.10
2019-05-06T21:46:09.447Z,77.10
2019-05-06T21:49:14.356Z,76.80
2019-05-06T21:52:33.649Z,76.20
2019-05-06T21:55:25.933Z,77.40
2019-05-06T21:58:30.837Z,76.60
2019-05-06T22:01:36.777Z,76.60
2019-05-06T22:04:43.338Z,76.60
2019-05-06T22:07:48.510Z,76.50
2019-05-06T22:10:53.426Z,76.70
2019-05-06T22:14:01.578Z,77.60
2019-05-06T22:17:06.846Z,76.90
2019-05-06T22:20:12.029Z,77.20
2019-05-06T22:23:17.010Z,77.30
2019-05-06T22:26:23.147Z,77.80
2019-05-06T22:29:28.469Z,78.10
2019-05-06T22:32:45.233Z,78.50
2019-05-06T22:35:52.027Z,79.40
2019-05-06T22:38:56.749Z,78.60
2019-05-06T22:42:01.749Z,78.60
2019-05-06T22:45:07.252Z,78.70
2019-05-06T22:48:12.237Z,79.10
2019-05-06T22:51:17.294Z,79.00
2019-05-06T22:54:24.372Z,79.20
2019-05-06T22:57:28.962Z,79.40
2019-05-06T23:00:35.585Z,80.40
2019-05-06T23:03:42.905Z,79.90
2019-05-06T23:06:47.096Z,80.20
2019-05-06T23:09:52.226Z,81.00
2019-05-06T23:12:57.270Z,81.00
2019-05-06T23:16:02.193Z,80.20
2019-05-06T23:19:07.242Z,81.10
2019-05-06T23:22:12.291Z,81.10
2019-05-06T23:25:17.217Z,81.10
2019-05-06T23:28:22.722Z,81.10
2019-05-06T23:31:27.850Z,81.40
2019-05-06T23:34:32.791Z,81.50
2019-05-06T23:38:13.732Z,81.80
2019-05-06T23:41:54.637Z,81.90
2019-05-06T23:45:35.768Z,81.90
2019-05-06T23:49:17.093Z,82.10
2019-05-06T23:52:58.100Z,82.50
2019-05-06T23:56:39.594Z,82.50
2019-05-06T23:59:44.527Z,82.90
